Time;durP1;ratioP1;P1;durP2;ratioP2;P2;SDS_P1;SDS_P2;PMS_P1;PMS_P2;Temp;Humidity;BMP_temperature;BMP_pressure;BME280_temperature;BME280_humidity;BME280_pressure;Samples;Min_cycle;Max_cycle;Signal;HPM_P1;HPM_P2
2023/12/28 00:00:21;;;;;;;2.80;1.00;;;;;;;2.66;100.00;101366.14;105697;1253;61412;-80
2023/12/28 00:02:49;;;;;;;3.10;1.30;;;;;;;2.67;100.00;101367.67;105761;1259;60382;-80
2023/12/28 00:05:17;;;;;;;1.10;0.80;;;;;;;2.68;100.00;101372.66;105582;1256;72574;-80
2023/12/28 00:07:44;;;;;;;3.40;1.10;;;;;;;2.68;100.00;101374.55;105601;1254;62477;-81
2023/12/28 00:10:12;;;;;;;1.90;1.10;;;;;;;2.69;100.00;101381.61;105652;1258;71062;-81
2023/12/28 00:12:40;;;;;;;1.90;0.80;;;;;;;2.69;100.00;101378.85;105599;1258;60554;-81
2023/12/28 00:15:08;;;;;;;1.90;0.70;;;;;;;2.70;100.00;101390.77;105722;1258;60404;-80
2023/12/28 00:17:36;;;;;;;0.70;0.50;;;;;;;2.72;100.00;101387.80;105562;1259;72686;-82
2023/12/28 00:20:05;;;;;;;1.70;1.40;;;;;;;2.73;100.00;101388.47;105658;1257;63128;-80
2023/12/28 00:22:33;;;;;;;2.20;1.30;;;;;;;2.73;100.00;101387.42;105823;1259;72693;-80
2023/12/28 00:25:01;;;;;;;1.20;0.80;;;;;;;2.77;100.00;101395.66;105661;1254;60828;-78
2023/12/28 00:27:28;;;;;;;1.40;1.00;;;;;;;2.78;100.00;101398.94;105500;1259;60310;-81
2023/12/28 00:29:59;;;;;;;2.40;0.80;;;;;;;2.78;100.00;101405.66;105511;1254;73008;-79
2023/12/28 00:32:27;;;;;;;1.50;1.00;;;;;;;2.77;100.00;101406.01;105590;1261;63735;-78
2023/12/28 00:34:54;;;;;;;1.20;0.80;;;;;;;2.75;100.00;101410.55;105448;1256;71166;-79
2023/12/28 00:37:22;;;;;;;1.80;1.20;;;;;;;2.70;100.00;101414.05;105460;1260;60587;-79
2023/12/28 00:39:50;;;;;;;2.50;1.20;;;;;;;2.70;100.00;101410.44;105578;1258;60400;-80
2023/12/28 00:42:19;;;;;;;1.90;1.20;;;;;;;2.70;100.00;101409.41;105603;1260;72946;-80
2023/12/28 00:44:47;;;;;;;2.50;1.70;;;;;;;2.68;100.00;101412.53;105778;1257;63677;-78
2023/12/28 00:47:14;;;;;;;4.40;1.40;;;;;;;2.65;100.00;101416.56;105707;1255;71435;-79
2023/12/28 00:49:42;;;;;;;2.20;1.20;;;;;;;2.62;100.00;101421.08;105774;1260;60470;-82
2023/12/28 00:52:09;;;;;;;3.20;1.40;;;;;;;2.59;100.00;101416.29;105549;1259;60366;-79
2023/12/28 00:54:37;;;;;;;3.40;2.00;;;;;;;2.53;100.00;101414.65;105520;1259;73910;-79
2023/12/28 00:57:04;;;;;;;2.30;1.70;;;;;;;2.46;100.00;101413.18;105611;1254;62443;-80
2023/12/28 00:59:31;;;;;;;4.40;2.60;;;;;;;2.40;100.00;101406.02;105549;1258;73493;-80
2023/12/28 01:02:00;;;;;;;3.60;1.90;;;;;;;2.33;100.00;101409.23;105646;1258;60956;-79
2023/12/28 01:04:28;;;;;;;11.10;5.40;;;;;;;2.24;100.00;101405.90;105577;1268;60445;-78
2023/12/28 01:06:56;;;;;;;9.00;4.70;;;;;;;2.17;100.00;101412.35;105558;1258;72983;-79
2023/12/28 01:09:23;;;;;;;10.00;4.80;;;;;;;2.13;100.00;101420.70;105636;1259;62482;-81
2023/12/28 01:11:50;;;;;;;9.20;4.50;;;;;;;2.08;100.00;101424.38;105597;1257;71405;-81
2023/12/28 01:14:18;;;;;;;12.80;5.30;;;;;;;2.03;100.00;101420.13;105550;1260;60842;-79
2023/12/28 01:16:45;;;;;;;9.90;3.80;;;;;;;1.98;100.00;101423.98;105793;1258;60495;-80
2023/12/28 01:19:12;;;;;;;10.60;4.30;;;;;;;1.93;100.00;101428.16;105535;1258;72317;-80
2023/12/28 01:21:40;;;;;;;15.80;6.40;;;;;;;1.86;100.00;101430.14;105812;1259;63315;-79
2023/12/28 01:24:08;;;;;;;10.00;5.30;;;;;;;1.82;100.00;101431.56;105690;1258;72657;-79
2023/12/28 01:26:36;;;;;;;22.90;10.20;;;;;;;1.79;100.00;101436.08;105647;1254;60553;-79
2023/12/28 01:29:03;;;;;;;16.70;7.10;;;;;;;1.76;100.00;101440.42;105586;1258;60394;-82
2023/12/28 01:31:30;;;;;;;12.20;5.90;;;;;;;1.72;100.00;101441.14;105589;1259;73230;-79
2023/12/28 01:33:58;;;;;;;12.50;6.90;;;;;;;1.69;100.00;101444.27;105700;1258;64221;-79
2023/12/28 01:36:29;;;;;;;10.60;4.20;;;;;;;1.66;100.00;101447.58;105589;1254;72669;-78
2023/12/28 01:38:56;;;;;;;5.10;2.70;;;;;;;1.64;100.00;101444.33;105762;1255;60550;-77
2023/12/28 01:41:24;;;;;;;3.40;2.20;;;;;;;1.60;100.00;101445.05;105468;1260;60403;-82
2023/12/28 01:43:52;;;;;;;4.90;2.80;;;;;;;1.59;100.00;101440.91;105663;1260;72723;-82
2023/12/28 01:46:21;;;;;;;7.60;4.30;;;;;;;1.59;100.00;101442.48;105768;1254;62331;-80
2023/12/28 01:48:49;;;;;;;2.60;1.80;;;;;;;1.60;100.00;101443.51;105675;1260;71397;-81
2023/12/28 01:51:19;;;;;;;6.70;3.70;;;;;;;1.59;100.00;101444.03;105800;1255;61152;-81
2023/12/28 01:53:48;;;;;;;5.60;2.00;;;;;;;1.58;100.00;101444.21;107222;1254;60518;-78
2023/12/28 01:56:15;;;;;;;6.50;3.40;;;;;;;1.56;100.00;101445.44;106090;1259;71806;-79
2023/12/28 01:58:43;;;;;;;7.40;3.40;;;;;;;1.55;100.00;101445.61;105549;1260;62488;-79
2023/12/28 02:01:13;;;;;;;3.60;2.00;;;;;;;1.55;100.00;101450.61;105634;1259;71401;-80
2023/12/28 02:03:41;;;;;;;9.00;3.40;;;;;;;1.54;100.00;101445.46;105689;1255;60468;-82
2023/12/28 02:06:10;;;;;;;5.60;2.10;;;;;;;1.52;100.00;101450.48;105557;1258;60355;-79
2023/12/28 02:08:38;;;;;;;5.70;2.80;;;;;;;1.50;100.00;101450.33;105714;1259;74072;-80
2023/12/28 02:11:05;;;;;;;8.10;2.60;;;;;;;1.49;100.00;101454.13;105655;1268;63854;-78
2023/12/28 02:13:33;;;;;;;7.20;2.80;;;;;;;1.47;100.00;101456.55;105588;1257;71389;-79
2023/12/28 02:16:11;;;;;;;8.00;4.30;;;;;;;1.47;100.00;101466.38;105626;1268;60599;-78
2023/12/28 02:18:43;;;;;;;7.40;2.50;;;;;;;1.47;100.00;101472.23;105537;1259;60438;-77
2023/12/28 02:21:12;;;;;;;5.70;2.70;;;;;;;1.47;100.00;101469.48;105636;1257;71817;-78
2023/12/28 02:23:39;;;;;;;7.90;2.60;;;;;;;1.48;100.00;101470.16;105402;1260;62805;-79
2023/12/28 02:26:07;;;;;;;5.80;2.80;;;;;;;1.49;100.00;101471.36;105520;1263;71480;-79
2023/12/28 02:28:35;;;;;;;7.80;3.80;;;;;;;1.49;100.00;101477.39;105723;1258;60507;-80
2023/12/28 02:31:02;;;;;;;9.10;4.30;;;;;;;1.48;100.00;101480.14;105789;1260;60954;-78
2023/12/28 02:33:49;;;;;;;7.90;4.40;;;;;;;1.48;100.00;101480.14;105634;1254;72840;-78
2023/12/28 02:36:18;;;;;;;11.50;5.30;;;;;;;1.48;100.00;101486.52;105722;1254;62271;-78
2023/12/28 02:38:46;;;;;;;14.00;7.60;;;;;;;1.47;100.00;101493.25;105798;1260;71468;-78
2023/12/28 02:41:13;;;;;;;13.90;7.90;;;;;;;1.45;100.00;101497.75;105562;1261;60495;-80
2023/12/28 02:43:41;;;;;;;13.10;5.70;;;;;;;1.45;100.00;101500.50;105602;1254;60652;-79
2023/12/28 02:46:08;;;;;;;10.20;6.10;;;;;;;1.44;100.00;101502.05;105467;1253;71593;-79
2023/12/28 02:48:36;;;;;;;16.50;8.40;;;;;;;1.43;100.00;101499.84;105538;1256;63755;-79
2023/12/28 02:51:03;;;;;;;14.50;8.90;;;;;;;1.43;100.00;101501.73;105747;1259;71588;-82
2023/12/28 02:53:31;;;;;;;21.60;11.90;;;;;;;1.44;100.00;101506.18;105643;1253;60878;-81
2023/12/28 02:55:59;;;;;;;27.90;14.60;;;;;;;1.44;100.00;101509.63;105932;1260;60459;-79
2023/12/28 02:58:26;;;;;;;35.10;19.30;;;;;;;1.45;100.00;101512.21;105553;1254;73859;-77
2023/12/28 03:00:53;;;;;;;49.40;21.90;;;;;;;1.45;100.00;101520.48;105682;1257;61647;-78
2023/12/28 03:03:22;;;;;;;48.40;23.20;;;;;;;1.45;100.00;101520.50;105552;1260;71468;-79
2023/12/28 03:05:50;;;;;;;42.50;22.40;;;;;;;1.44;100.00;101514.11;105668;1257;60733;-81
2023/12/28 03:08:17;;;;;;;40.20;17.40;;;;;;;1.42;100.00;101512.08;105578;1254;61028;-81
2023/12/28 03:10:45;;;;;;;32.90;14.60;;;;;;;1.41;100.00;101516.91;105727;1258;73851;-81
2023/12/28 03:13:12;;;;;;;27.90;11.10;;;;;;;1.39;100.00;101523.11;105609;1260;62395;-80
2023/12/28 03:15:39;;;;;;;19.00;11.40;;;;;;;1.37;100.00;101525.55;105615;1260;72607;-80
2023/12/28 03:18:07;;;;;;;26.10;10.40;;;;;;;1.35;100.00;101527.45;105600;1259;60989;-78
2023/12/28 03:20:37;;;;;;;21.80;10.80;;;;;;;1.33;100.00;101529.37;105612;1259;60540;-82
2023/12/28 03:23:06;;;;;;;21.30;10.00;;;;;;;1.31;100.00;101540.75;105616;1257;72477;-81
2023/12/28 03:25:33;;;;;;;25.10;10.30;;;;;;;1.30;100.00;101543.34;105670;1254;62294;-79
2023/12/28 03:28:00;;;;;;;18.70;10.00;;;;;;;1.28;100.00;101545.26;105542;1255;71429;-80
2023/12/28 03:30:29;;;;;;;23.50;9.60;;;;;;;1.26;100.00;101549.05;105517;1259;60436;-80
2023/12/28 03:32:56;;;;;;;20.90;9.50;;;;;;;1.21;100.00;101554.08;105688;1256;60351;-78
2023/12/28 03:35:25;;;;;;;18.00;9.80;;;;;;;1.19;100.00;101555.98;105683;1256;72756;-79
2023/12/28 03:37:52;;;;;;;17.90;8.30;;;;;;;1.16;100.00;101558.77;105683;1266;62314;-81
2023/12/28 03:40:20;;;;;;;14.70;7.70;;;;;;;1.13;100.00;101557.22;105595;1254;72647;-79
2023/12/28 03:42:47;;;;;;;13.40;7.40;;;;;;;1.09;100.00;101560.86;105765;1259;60553;-78
2023/12/28 03:45:16;;;;;;;10.80;6.60;;;;;;;1.05;100.00;101567.08;105583;1259;60474;-80
2023/12/28 03:47:44;;;;;;;17.60;6.40;;;;;;;1.01;100.00;101570.20;105546;1259;74575;-81
2023/12/28 03:50:12;;;;;;;13.90;6.90;;;;;;;0.98;100.00;101569.20;105663;1269;63504;-79
2023/12/28 03:52:39;;;;;;;14.70;7.50;;;;;;;0.93;100.00;101572.66;105628;1255;72467;-80
2023/12/28 03:55:07;;;;;;;12.70;7.80;;;;;;;0.89;100.00;101580.08;105724;1257;60578;-79
2023/12/28 03:57:36;;;;;;;16.10;9.00;;;;;;;0.85;100.00;101577.35;105681;1259;60330;-79
2023/12/28 04:00:05;;;;;;;17.50;8.30;;;;;;;0.82;100.00;101583.38;105865;1257;72607;-79
2023/12/28 04:02:39;;;;;;;21.30;7.70;;;;;;;0.79;100.00;101582.53;105634;1255;64871;-80
2023/12/28 04:05:07;;;;;;;24.60;11.30;;;;;;;0.77;100.00;101583.06;105578;1260;72761;-79
2023/12/28 04:07:34;;;;;;;19.40;8.80;;;;;;;0.75;100.00;101583.92;105669;1258;60378;-80
2023/12/28 04:10:03;;;;;;;20.00;8.80;;;;;;;0.73;100.00;101584.27;105604;1259;60426;-77
2023/12/28 04:12:30;;;;;;;20.10;8.40;;;;;;;0.70;100.00;101591.52;105535;1254;72860;-77
2023/12/28 04:14:58;;;;;;;19.20;8.60;;;;;;;0.68;100.00;101594.96;105601;1254;64286;-78
2023/12/28 04:17:26;;;;;;;17.50;8.20;;;;;;;0.66;100.00;101597.38;105589;1259;71627;-78
2023/12/28 04:20:11;;;;;;;21.90;7.80;;;;;;;0.66;100.00;101604.95;102826;1294;600382;-78
2023/12/28 04:22:38;;;;;;;16.80;7.90;;;;;;;0.63;100.00;101604.98;104930;1270;60876;-78
2023/12/28 04:25:06;;;;;;;21.20;8.00;;;;;;;0.62;100.00;101610.48;104663;1267;60114;-78
2023/12/28 04:27:33;;;;;;;23.50;8.50;;;;;;;0.60;100.00;101612.88;104952;1269;72137;-81
2023/12/28 04:30:01;;;;;;;12.50;7.00;;;;;;;0.59;100.00;101613.39;104926;1265;62434;-77
2023/12/28 04:32:29;;;;;;;18.10;7.20;;;;;;;0.59;100.00;101617.02;104904;1268;72750;-79
2023/12/28 04:34:57;;;;;;;13.80;6.10;;;;;;;0.59;100.00;101620.45;104827;1265;164190;-80
2023/12/28 04:37:26;;;;;;;13.50;5.90;;;;;;;0.59;100.00;101619.42;105018;1267;59281;-80
2023/12/28 04:39:55;;;;;;;12.20;5.40;;;;;;;0.62;100.00;101622.34;105309;1261;70805;-81
2023/12/28 04:42:23;;;;;;;9.80;5.40;;;;;;;0.66;100.00;101621.30;105157;1267;63460;-80
2023/12/28 04:44:51;;;;;;;10.70;5.70;;;;;;;0.70;100.00;101613.55;105250;1260;71537;-77
2023/12/28 04:47:19;;;;;;;9.30;4.10;;;;;;;0.74;100.00;101614.05;105411;1260;59829;-81
2023/12/28 04:49:46;;;;;;;13.00;6.40;;;;;;;0.78;100.00;101615.23;105384;1258;60076;-80
2023/12/28 04:52:14;;;;;;;7.10;4.10;;;;;;;0.83;100.00;101613.85;105555;1262;71843;-79
2023/12/28 04:54:44;;;;;;;12.50;4.60;;;;;;;0.87;100.00;101616.06;105322;1258;62428;-80
2023/12/28 04:57:11;;;;;;;8.00;4.90;;;;;;;0.91;100.00;101621.38;105424;1256;73418;-81
2023/12/28 04:59:39;;;;;;;9.80;3.90;;;;;;;0.96;100.00;101620.34;105685;1258;60048;-78
2023/12/28 05:02:07;;;;;;;10.70;5.50;;;;;;;1.01;100.00;101615.15;105921;1258;59733;-78
2023/12/28 05:04:41;;;;;;;6.90;4.10;;;;;;;1.05;100.00;101616.33;105863;1257;72337;-80
2023/12/28 05:07:09;;;;;;;10.30;5.10;;;;;;;1.08;100.00;101615.98;105871;1253;62274;-80
2023/12/28 05:09:37;;;;;;;7.30;4.40;;;;;;;1.11;100.00;101619.41;106085;1252;72602;-81
2023/12/28 05:12:04;;;;;;;6.30;4.30;;;;;;;1.13;100.00;101616.64;106200;1257;61308;-79
2023/12/28 05:14:33;;;;;;;8.60;4.30;;;;;;;1.17;100.00;101620.58;106005;1253;59702;-79
2023/12/28 05:17:00;;;;;;;9.20;4.70;;;;;;;1.20;100.00;101624.53;105854;1253;73069;-79
2023/12/28 05:19:27;;;;;;;7.80;4.00;;;;;;;1.22;100.00;101629.86;105992;1253;63566;-78
2023/12/28 05:21:55;;;;;;;8.10;4.90;;;;;;;1.25;100.00;101629.67;108172;1252;72720;-78
2023/12/28 05:24:23;;;;;;;8.70;5.00;;;;;;;1.28;100.00;101624.83;105938;1254;59677;-80
2023/12/28 05:26:51;;;;;;;7.40;4.90;;;;;;;1.30;100.00;101626.89;105815;1253;60052;-79
2023/12/28 05:29:19;;;;;;;14.10;8.00;;;;;;;1.34;100.00;101636.16;105707;1253;71839;-78
2023/12/28 05:31:46;;;;;;;7.10;5.30;;;;;;;1.38;100.00;101635.97;105793;1252;62907;-78
2023/12/28 05:34:14;;;;;;;7.50;4.30;;;;;;;1.43;100.00;101632.66;105829;1252;73818;-80
2023/12/28 05:36:43;;;;;;;7.80;4.40;;;;;;;1.48;100.00;101637.13;105747;1258;60837;-81
2023/12/28 05:39:13;;;;;;;9.40;5.60;;;;;;;1.51;100.00;101636.06;105709;1252;60108;-80
2023/12/28 05:41:40;;;;;;;12.30;6.80;;;;;;;1.53;100.00;101636.41;105933;1253;73079;-81
2023/12/28 05:44:08;;;;;;;9.40;5.10;;;;;;;1.56;100.00;101635.88;105831;1253;62403;-79
2023/12/28 05:46:35;;;;;;;9.60;4.00;;;;;;;1.57;100.00;101638.27;105732;1258;72664;-80
2023/12/28 05:49:03;;;;;;;7.40;3.90;;;;;;;1.58;100.00;101636.54;105730;1254;59738;-79
2023/12/28 05:51:37;;;;;;;7.50;4.50;;;;;;;1.58;100.00;101638.61;106387;1254;59728;-78
2023/12/28 05:54:05;;;;;;;9.40;4.30;;;;;;;1.59;100.00;101645.66;106115;1256;73053;-80
2023/12/28 05:56:36;;;;;;;17.00;8.60;;;;;;;1.61;100.00;101645.31;105770;1252;64511;-82
2023/12/28 05:59:03;;;;;;;8.80;5.00;;;;;;;1.63;100.00;101646.67;105727;1257;71499;-81
2023/12/28 06:44:15;;;;;;;7.70;4.00;;;;;;;2.00;100.00;101702.46;102861;1287;602845;-82
2023/12/28 06:46:42;;;;;;;9.00;3.90;;;;;;;2.03;100.00;101696.92;105241;1269;61043;-80
2023/12/28 06:49:09;;;;;;;8.60;4.90;;;;;;;2.07;100.00;101693.79;105066;1264;60174;-82
2023/12/28 06:51:38;;;;;;;9.10;5.30;;;;;;;2.11;100.00;101696.34;105368;1261;72110;-80
2023/12/28 06:54:05;;;;;;;9.60;5.10;;;;;;;2.13;100.00;101692.70;105259;1266;63940;-81
2023/12/28 06:56:32;;;;;;;9.40;4.80;;;;;;;2.16;100.00;101698.05;105656;1257;146171;-81
2023/12/28 06:58:59;;;;;;;7.40;4.60;;;;;;;2.18;100.00;101703.53;105995;1253;60970;-81
2023/12/28 07:01:26;;;;;;;12.70;4.80;;;;;;;2.20;100.00;101704.21;106061;1253;59365;-80
2023/12/28 07:03:52;;;;;;;10.30;4.10;;;;;;;2.23;100.00;101706.08;106461;1250;71970;-82
2023/12/28 07:06:19;;;;;;;8.00;4.50;;;;;;;2.28;100.00;101705.36;106081;1253;63898;-81
2023/12/28 07:08:46;;;;;;;7.00;4.50;;;;;;;2.33;100.00;101698.25;106207;1251;72659;-80
2023/12/28 07:11:13;;;;;;;7.60;4.50;;;;;;;2.38;100.00;101702.35;106151;1251;59659;-81
2023/12/28 07:13:40;;;;;;;7.00;4.70;;;;;;;2.42;100.00;101710.07;106056;1253;60297;-81
2023/12/28 07:16:07;;;;;;;8.40;5.10;;;;;;;2.45;100.00;101715.05;106120;1249;73185;-80
2023/12/28 07:18:34;;;;;;;10.40;5.30;;;;;;;2.49;100.00;101721.59;106146;1253;63879;-81
2023/12/28 07:21:02;;;;;;;12.00;5.60;;;;;;;2.54;100.00;101721.02;106124;1251;72740;-81
2023/12/28 07:23:30;;;;;;;9.60;5.70;;;;;;;2.58;100.00;101722.36;106155;1253;61130;-80
2023/12/28 07:25:57;;;;;;;6.90;5.20;;;;;;;2.63;100.00;101720.06;106105;1253;60304;-81
2023/12/28 07:28:24;;;;;;;13.60;5.30;;;;;;;2.67;100.00;101711.55;106054;1253;73349;-80
2023/12/28 07:30:53;;;;;;;10.50;5.60;;;;;;;2.71;100.00;101714.11;106011;1254;62268;-80
2023/12/28 07:33:20;;;;;;;12.50;5.30;;;;;;;2.76;100.00;101714.59;106179;1251;72462;-80
2023/12/28 07:35:47;;;;;;;14.60;6.30;;;;;;;2.79;100.00;101719.91;106616;1249;59702;-80
2023/12/28 07:38:15;;;;;;;15.40;6.30;;;;;;;2.82;100.00;101720.56;106283;1251;59617;-82
2023/12/28 07:40:41;;;;;;;15.10;7.40;;;;;;;2.87;100.00;101718.63;106129;1253;73148;-83
2023/12/28 07:43:08;;;;;;;12.80;5.10;;;;;;;2.93;100.00;101717.35;106050;1251;61472;-82
2023/12/28 07:45:38;;;;;;;7.10;5.10;;;;;;;3.00;100.00;101720.90;106121;1253;72635;-83
2023/12/28 07:48:05;;;;;;;11.10;5.40;;;;;;;3.07;100.00;101723.42;106107;1250;59800;-82
2023/12/28 07:50:33;;;;;;;11.30;5.80;;;;;;;3.15;100.00;101721.79;106133;1253;59558;-83
2023/12/28 07:53:01;;;;;;;11.90;6.30;;;;;;;3.22;100.00;101727.40;106102;1251;73090;-80
2023/12/28 07:55:28;;;;;;;16.20;6.30;;;;;;;3.27;100.00;101725.96;106011;1254;64026;-84
2023/12/28 07:57:54;;;;;;;16.00;7.80;;;;;;;3.34;100.00;101733.48;106213;1253;72748;-82
2023/12/28 08:00:21;;;;;;;10.80;6.30;;;;;;;3.40;100.00;101727.88;106127;1253;59699;-80
2023/12/28 08:02:49;;;;;;;9.70;5.90;;;;;;;3.44;100.00;101733.88;106062;1250;60192;-82
2023/12/28 08:05:16;;;;;;;11.30;6.90;;;;;;;3.46;100.00;101731.77;106224;1251;71421;-83
2023/12/28 08:07:43;;;;;;;11.20;7.10;;;;;;;3.48;100.00;101735.20;106143;1253;63927;-84
2023/12/28 08:10:11;;;;;;;14.00;7.70;;;;;;;3.49;100.00;101744.86;106149;1251;72551;-84
2023/12/28 08:12:39;;;;;;;11.70;7.40;;;;;;;3.48;100.00;101753.70;106170;1253;61299;-81
2023/12/28 08:15:06;;;;;;;13.80;6.50;;;;;;;3.46;100.00;101754.08;106137;1251;59984;-81
2023/12/28 08:17:35;;;;;;;15.00;7.60;;;;;;;3.45;100.00;101750.98;106217;1251;73016;-81
2023/12/28 08:20:03;;;;;;;15.20;8.10;;;;;;;3.43;100.00;101748.58;106309;1251;62297;-83
2023/12/28 08:22:31;;;;;;;14.00;7.40;;;;;;;3.42;100.00;101749.11;106147;1251;72511;-83
2023/12/28 08:24:57;;;;;;;16.50;8.20;;;;;;;3.42;100.00;101754.46;106164;1249;59662;-82
2023/12/28 08:27:25;;;;;;;16.10;8.00;;;;;;;3.44;100.00;101748.92;106136;1253;59629;-83
2023/12/28 08:29:53;;;;;;;23.60;11.50;;;;;;;3.46;100.00;101746.48;106030;1253;73018;-82
2023/12/28 08:32:21;;;;;;;18.60;11.40;;;;;;;3.47;100.00;101747.33;106136;1253;62498;-80
2023/12/28 08:34:49;;;;;;;13.00;7.20;;;;;;;3.46;100.00;101750.44;106191;1250;71084;-83
2023/12/28 08:37:16;;;;;;;7.60;6.00;;;;;;;3.45;100.00;101755.48;106117;1252;59655;-82
2023/12/28 08:39:42;;;;;;;11.50;5.90;;;;;;;3.45;100.00;101754.77;106196;1253;60295;-82
2023/12/28 08:42:10;;;;;;;10.50;4.90;;;;;;;3.47;100.00;101749.05;106200;1251;71931;-82
2023/12/28 08:44:37;;;;;;;13.40;5.70;;;;;;;3.48;100.00;101746.79;106469;1251;64121;-82
2023/12/28 08:47:04;;;;;;;11.90;7.10;;;;;;;3.47;100.00;101749.92;106183;1253;72636;-83
2023/12/28 08:49:33;;;;;;;13.60;7.40;;;;;;;3.47;100.00;101748.71;106458;1252;61300;-84
2023/12/28 08:52:00;;;;;;;15.60;7.30;;;;;;;3.46;100.00;101747.32;106178;1253;59627;-83
2023/12/28 08:54:27;;;;;;;14.70;7.70;;;;;;;3.47;100.00;101746.11;106116;1253;72844;-84
2023/12/28 08:56:54;;;;;;;22.70;8.20;;;;;;;3.50;100.00;101742.27;106397;1253;63740;-83
2023/12/28 08:59:25;;;;;;;18.40;10.10;;;;;;;3.52;100.00;101743.45;106157;1253;72686;-82
2023/12/28 09:01:54;;;;;;;21.40;10.00;;;;;;;3.55;100.00;101749.13;106205;1250;61146;-81
2023/12/28 09:04:21;;;;;;;17.70;9.10;;;;;;;3.58;100.00;101744.59;106210;1251;59614;-80
2023/12/28 09:06:48;;;;;;;16.90;8.60;;;;;;;3.61;100.00;101743.68;106249;1252;73071;-82
2023/12/28 09:09:15;;;;;;;21.80;9.10;;;;;;;3.63;100.00;101740.72;106267;1253;63881;-83
2023/12/28 09:11:42;;;;;;;18.30;9.30;;;;;;;3.66;100.00;101745.52;106223;1253;71080;-81
2023/12/28 09:14:10;;;;;;;18.40;8.70;;;;;;;3.68;100.00;101749.48;106050;1251;61141;-82
2023/12/28 09:16:39;;;;;;;17.30;8.80;;;;;;;3.70;100.00;101747.54;106433;1250;60081;-83
2023/12/28 09:19:06;;;;;;;20.40;7.90;;;;;;;3.73;100.00;101746.98;106264;1251;73105;-83
2023/12/28 09:21:34;;;;;;;12.60;7.40;;;;;;;3.77;100.00;101749.88;106323;1253;63819;-81
2023/12/28 09:24:01;;;;;;;15.50;7.70;;;;;;;3.80;100.00;101751.57;106192;1253;72597;-83
2023/12/28 09:26:28;;;;;;;11.50;6.50;;;;;;;3.83;100.00;101752.38;106212;1253;61205;-82
2023/12/28 09:28:56;;;;;;;9.40;4.40;;;;;;;3.87;100.00;101749.57;106236;1249;59654;-82
2023/12/28 09:31:23;;;;;;;6.40;4.30;;;;;;;3.90;100.00;101745.37;106297;1253;72918;-81
2023/12/28 09:33:49;;;;;;;11.90;5.50;;;;;;;3.93;100.00;101742.91;106298;1253;62834;-80
2023/12/28 09:36:16;;;;;;;8.00;5.20;;;;;;;3.97;100.00;101736.79;106087;1253;72589;-82
2023/12/28 09:38:44;;;;;;;7.50;4.60;;;;;;;4.01;100.00;101733.10;106563;1249;59739;-82
2023/12/28 09:41:14;;;;;;;10.80;5.80;;;;;;;4.06;100.00;101740.30;106342;1253;59595;-82
2023/12/28 09:44:08;;;;;;;12.40;5.30;;;;;;;4.09;100.00;101735.05;106238;1249;71462;-84
2023/12/28 09:46:35;;;;;;;11.40;5.20;;;;;;;4.12;100.00;101740.02;106732;1251;63830;-81
2023/12/28 09:49:02;;;;;;;11.70;5.50;;;;;;;4.16;100.00;101743.44;106609;1253;71836;-82
2023/12/28 09:51:29;;;;;;;8.50;5.30;;;;;;;4.20;100.00;101736.29;106118;1256;59717;-82
2023/12/28 09:53:56;;;;;;;9.60;6.40;;;;;;;4.22;100.00;101731.91;106309;1253;59746;-82
2023/12/28 09:56:24;;;;;;;11.80;7.40;;;;;;;4.23;100.00;101726.37;106210;1251;72850;-84
2023/12/28 09:58:52;;;;;;;16.00;7.20;;;;;;;4.23;100.00;101719.95;106118;1251;62618;-83
2023/12/28 10:01:19;;;;;;;16.30;7.20;;;;;;;4.23;100.00;101716.15;106131;1257;72575;-82
2023/12/28 10:03:46;;;;;;;16.60;9.00;;;;;;;4.24;100.00;101708.87;106162;1253;60998;-83
2023/12/28 10:06:15;;;;;;;15.30;8.30;;;;;;;4.27;100.00;101705.01;106159;1249;59619;-83
2023/12/28 10:08:47;;;;;;;14.90;7.40;;;;;;;4.29;100.00;101707.91;106062;1253;73103;-83
2023/12/28 10:11:15;;;;;;;11.50;7.60;;;;;;;4.29;100.00;101707.91;106225;1253;61769;-82
2023/12/28 10:13:43;;;;;;;17.50;8.60;;;;;;;4.30;100.00;101702.19;105995;1251;72584;-83
2023/12/28 10:16:11;;;;;;;21.00;9.50;;;;;;;4.31;100.00;101698.70;106143;1253;60980;-81
2023/12/28 10:18:44;;;;;;;24.20;12.30;;;;;;;4.34;100.00;101704.55;106146;1253;60113;-85
2023/12/28 10:21:12;;;;;;;19.80;12.40;;;;;;;4.40;100.00;101706.36;106259;1251;72929;-84
2023/12/28 10:23:39;;;;;;;23.60;10.90;;;;;;;4.43;100.00;101700.41;106174;1250;63983;-84
2023/12/28 10:26:07;;;;;;;20.20;9.60;;;;;;;4.46;100.00;101689.64;106127;1253;72642;-84
2023/12/28 10:28:34;;;;;;;16.50;9.60;;;;;;;4.49;100.00;101688.88;106030;1251;60105;-83
2023/12/28 10:31:01;;;;;;;13.10;8.70;;;;;;;4.51;100.00;101684.52;106280;1253;59637;-83
2023/12/28 10:33:34;;;;;;;19.00;10.10;;;;;;;4.52;100.00;101686.77;106397;1253;73029;-80
2023/12/28 10:36:05;;;;;;;17.90;10.40;;;;;;;4.52;100.00;101680.52;106100;1253;63796;-82
2023/12/28 10:38:36;;;;;;;20.50;9.90;;;;;;;4.54;100.00;101679.80;106250;1251;72660;-82
2023/12/28 10:41:07;;;;;;;23.50;9.20;;;;;;;4.59;100.00;101686.29;106147;1251;61311;-83
2023/12/28 10:43:45;;;;;;;20.10;9.00;;;;;;;4.67;100.00;101691.68;106155;1253;60150;-82
2023/12/28 10:46:31;;;;;;;24.90;10.10;;;;;;;4.73;100.00;101697.62;106137;1253;73075;-82
2023/12/28 10:49:06;;;;;;;18.60;10.20;;;;;;;4.80;100.00;101701.33;106169;1251;62717;-83
2023/12/28 10:51:34;;;;;;;;;;;;;;;4.83;100.00;101701.95;105977;1257;71480;-83
2023/12/28 10:54:28;;;;;;;18.70;9.90;;;;;;;4.85;100.00;101695.34;106109;1251;62919;-82
2023/12/28 10:57:06;;;;;;;17.30;9.90;;;;;;;4.88;100.00;101688.35;106034;1251;60559;-81
2023/12/28 10:59:50;;;;;;;20.70;11.60;;;;;;;4.91;100.00;101681.54;106093;1257;75511;-82
2023/12/28 11:02:21;;;;;;;21.90;12.40;;;;;;;4.92;100.00;101682.90;106142;1253;63838;-82
2023/12/28 11:04:49;;;;;;;24.30;12.50;;;;;;;4.89;100.00;101681.40;106243;1251;71181;-82
2023/12/28 11:07:18;;;;;;;24.80;12.10;;;;;;;4.88;100.00;101677.94;106157;1257;61083;-82
2023/12/28 11:09:45;;;;;;;22.80;11.00;;;;;;;4.89;100.00;101675.50;106213;1251;60922;-80
2023/12/28 11:12:12;;;;;;;14.80;9.90;;;;;;;4.88;100.00;101677.95;106093;1251;73686;-84
2023/12/28 11:14:40;;;;;;;15.10;8.00;;;;;;;4.83;100.00;101673.70;106075;1253;65138;-82
2023/12/28 11:17:06;;;;;;;12.00;6.90;;;;;;;4.79;100.00;101671.00;106062;1253;71617;-81
2023/12/28 11:19:34;;;;;;;14.60;7.20;;;;;;;4.76;100.00;101675.40;106017;1251;60783;-81
2023/12/28 11:22:02;;;;;;;12.70;7.30;;;;;;;4.74;100.00;101676.48;106190;1252;60787;-82
2023/12/28 11:24:30;;;;;;;12.10;7.30;;;;;;;4.75;100.00;101671.60;106109;1254;73887;-83
2023/12/28 11:26:57;;;;;;;15.90;6.20;;;;;;;4.74;100.00;101666.60;106086;1253;62837;-83
2023/12/28 11:29:25;;;;;;;13.10;6.60;;;;;;;4.71;100.00;101673.06;106071;1253;71559;-83
2023/12/28 11:31:57;;;;;;;14.40;7.70;;;;;;;4.70;100.00;101670.66;106308;1253;61247;-81
2023/12/28 11:34:28;;;;;;;19.60;8.60;;;;;;;4.71;100.00;101650.03;106174;1251;60446;-82
2023/12/28 11:36:56;;;;;;;17.40;8.90;;;;;;;4.70;100.00;101648.66;106306;1251;73881;-82
2023/12/28 11:39:33;;;;;;;20.10;11.40;;;;;;;4.70;100.00;101650.91;106184;1250;63068;-82
2023/12/28 11:42:03;;;;;;;21.40;12.00;;;;;;;4.73;100.00;101653.79;106228;1253;72405;-82
2023/12/28 11:44:31;;;;;;;18.60;10.70;;;;;;;4.79;100.00;101660.98;106071;1253;62197;-83
2023/12/28 11:46:58;;;;;;;15.70;10.50;;;;;;;4.86;100.00;101673.31;106160;1253;61055;-82
2023/12/28 11:49:29;;;;;;;26.30;10.70;;;;;;;4.87;100.00;101679.35;106097;1253;74017;-81
2023/12/28 11:51:57;;;;;;;19.20;9.50;;;;;;;4.84;100.00;101682.88;106128;1251;62306;-83
2023/12/28 11:54:26;;;;;;;13.90;6.90;;;;;;;4.82;100.00;101677.88;106085;1250;73462;-83
2023/12/28 11:56:52;;;;;;;14.20;7.20;;;;;;;4.84;100.00;101680.29;106197;1253;62767;-84
2023/12/28 11:59:20;;;;;;;23.00;6.50;;;;;;;4.88;100.00;101678.98;106309;1253;60428;-81